createdAt,value
2017-07-11T00:00:29.064Z,33.97
2017-07-11T00:02:57.418Z,18.40
2017-07-11T00:05:26.266Z,17.30
2017-07-11T00:07:54.617Z,23.20
2017-07-11T00:10:22.981Z,22.03
2017-07-11T00:12:51.787Z,21.87
2017-07-11T00:15:20.139Z,36.50
2017-07-11T00:17:48.490Z,29.03
2017-07-11T00:20:17.171Z,27.77
2017-07-11T00:22:45.509Z,26.00
2017-07-11T00:25:13.854Z,25.23
2017-07-11T00:27:42.518Z,22.80
2017-07-11T00:30:10.881Z,18.60
2017-07-11T00:32:39.238Z,21.93
2017-07-11T00:35:08.098Z,24.07
2017-07-11T00:37:36.432Z,28.10
2017-07-11T00:40:04.780Z,26.50
2017-07-11T00:42:33.486Z,19.90
2017-07-11T00:45:01.836Z,29.63
2017-07-11T00:47:30.193Z,24.73
2017-07-11T00:49:59.149Z,27.30
2017-07-11T00:52:27.528Z,21.00
2017-07-11T00:54:55.881Z,18.87
2017-07-11T00:57:25.008Z,21.13
2017-07-11T00:59:53.348Z,26.60
2017-07-11T01:02:21.709Z,23.70
2017-07-11T01:04:50.589Z,23.43
2017-07-11T01:07:18.952Z,27.27
2017-07-11T01:09:47.306Z,18.43
2017-07-11T01:12:16.091Z,22.13
2017-07-11T01:14:44.483Z,18.73
2017-07-11T01:17:12.837Z,24.47
2017-07-11T01:19:41.629Z,23.53
2017-07-11T01:22:10.757Z,25.03
2017-07-11T01:24:39.109Z,26.27
2017-07-11T01:27:07.796Z,27.63
2017-07-11T01:29:36.181Z,25.73
2017-07-11T01:32:05.315Z,29.80
2017-07-11T01:34:34.308Z,31.83
2017-07-11T01:37:02.652Z,35.07
2017-07-11T01:39:31.009Z,36.93
2017-07-11T01:41:59.694Z,27.77
2017-07-11T01:44:28.093Z,30.90
2017-07-11T01:46:56.454Z,47.47
2017-07-11T01:49:25.065Z,35.63
2017-07-11T01:51:53.516Z,37.23
2017-07-11T01:54:21.895Z,42.07
2017-07-11T01:56:50.846Z,38.93
2017-07-11T01:59:19.204Z,42.13
2017-07-11T02:01:47.557Z,42.50
2017-07-11T02:04:16.470Z,33.53
2017-07-11T02:06:44.810Z,38.37
2017-07-11T02:09:13.170Z,37.90
2017-07-11T02:11:41.773Z,48.00
2017-07-11T02:14:10.153Z,46.50
2017-07-11T02:16:38.497Z,50.27
2017-07-11T02:19:07.195Z,47.87
2017-07-11T02:21:35.546Z,49.87
2017-07-11T02:24:03.885Z,55.20
2017-07-11T02:26:33.129Z,51.70
2017-07-11T02:29:01.486Z,54.90
2017-07-11T02:31:29.848Z,51.17
2017-07-11T02:33:59.469Z,60.93
2017-07-11T02:36:27.833Z,52.17
2017-07-11T02:38:56.964Z,56.47
2017-07-11T02:41:25.840Z,58.20
2017-07-11T02:43:54.975Z,65.93
2017-07-11T02:46:23.339Z,55.50
2017-07-11T02:48:52.217Z,51.20
2017-07-11T02:51:20.566Z,58.47
2017-07-11T02:53:48.915Z,60.50
2017-07-11T02:56:17.595Z,58.93
2017-07-11T02:58:45.934Z,61.43
2017-07-11T03:01:14.301Z,56.70
2017-07-11T03:03:43.704Z,62.00
2017-07-11T03:06:12.052Z,52.13
2017-07-11T03:08:40.373Z,58.47
2017-07-11T03:11:09.226Z,58.60
2017-07-11T03:13:37.573Z,64.07
2017-07-11T03:16:05.957Z,52.43
2017-07-11T03:18:34.813Z,60.53
2017-07-11T03:21:03.179Z,42.77
2017-07-11T03:23:32.301Z,48.87
2017-07-11T03:26:00.939Z,53.70
2017-07-11T03:28:29.322Z,52.03
2017-07-11T03:30:57.668Z,53.43
2017-07-11T03:33:26.692Z,56.33
2017-07-11T03:35:55.045Z,52.63
2017-07-11T03:38:23.394Z,44.93
2017-07-11T03:40:52.169Z,48.27
2017-07-11T03:43:20.538Z,51.60
2017-07-11T03:45:49.652Z,48.03
2017-07-11T03:48:18.290Z,44.63
2017-07-11T03:50:46.630Z,44.80
2017-07-11T03:53:14.969Z,42.40
2017-07-11T03:55:43.848Z,40.17
2017-07-11T03:58:12.207Z,49.33
2017-07-11T04:00:40.546Z,50.23
2017-07-11T04:03:09.244Z,50.33
2017-07-11T04:05:37.585Z,45.80
2017-07-11T04:08:05.918Z,51.77
2017-07-11T04:10:34.600Z,50.57
2017-07-11T04:13:02.949Z,42.97
2017-07-11T04:15:31.306Z,45.30
2017-07-11T04:18:00.421Z,43.50
2017-07-11T04:20:28.753Z,41.37
2017-07-11T04:22:57.121Z,50.03
2017-07-11T04:25:25.871Z,43.63
2017-07-11T04:27:54.213Z,46.17
2017-07-11T04:30:22.572Z,44.63
2017-07-11T04:32:51.282Z,43.97
2017-07-11T04:35:19.636Z,40.93
2017-07-11T04:37:47.990Z,44.53
2017-07-11T04:40:16.967Z,46.80
2017-07-11T04:42:45.318Z,53.07
2017-07-11T04:45:13.687Z,42.37
2017-07-11T04:47:42.304Z,36.43
2017-07-11T04:50:10.675Z,40.50
2017-07-11T04:52:38.993Z,40.13
2017-07-11T04:55:07.653Z,39.53
2017-07-11T04:57:36.055Z,34.57
2017-07-11T05:00:04.416Z,35.50
2017-07-11T05:02:33.302Z,38.90
2017-07-11T05:05:01.633Z,38.00
2017-07-11T05:07:29.955Z,36.67
2017-07-11T05:09:58.624Z,38.43
2017-07-11T05:12:27.756Z,32.10
2017-07-11T05:14:56.155Z,29.53
2017-07-11T05:17:25.007Z,31.23
2017-07-11T05:19:53.361Z,33.57
2017-07-11T05:22:21.727Z,28.63
2017-07-11T05:24:50.860Z,29.40
2017-07-11T05:27:19.260Z,21.40
2017-07-11T05:29:47.613Z,30.47
2017-07-11T05:32:16.276Z,36.47
2017-07-11T05:34:44.604Z,29.10
2017-07-11T05:37:12.933Z,26.37
2017-07-11T05:39:41.565Z,31.70
2017-07-11T05:42:09.915Z,30.03
2017-07-11T05:44:38.264Z,30.03
2017-07-11T05:47:07.012Z,29.40
2017-07-11T05:49:35.385Z,26.80
2017-07-11T05:52:03.738Z,28.03
2017-07-11T05:54:32.382Z,23.10
2017-07-11T05:57:00.734Z,21.93
2017-07-11T05:59:29.091Z,25.23
2017-07-11T06:01:58.087Z,25.00
2017-07-11T06:04:26.448Z,21.23
2017-07-11T06:06:54.851Z,26.50
2017-07-11T06:09:24.090Z,22.53
2017-07-11T06:11:52.439Z,22.17
2017-07-11T06:14:20.780Z,21.67
2017-07-11T06:16:49.432Z,18.90
2017-07-11T06:19:17.780Z,20.07
2017-07-11T06:21:46.158Z,19.80
2017-07-11T06:24:15.017Z,22.30
2017-07-11T06:26:43.377Z,19.90
2017-07-11T06:29:12.495Z,22.17
2017-07-11T06:31:41.501Z,25.33
2017-07-11T06:34:09.863Z,18.53
2017-07-11T06:36:38.202Z,23.47
2017-07-11T06:39:06.965Z,21.77
2017-07-11T06:41:35.307Z,18.90
2017-07-11T06:44:03.647Z,20.57
2017-07-11T06:46:32.285Z,23.37
2017-07-11T06:49:01.386Z,23.40
2017-07-11T06:51:30.486Z,19.30
2017-07-11T06:54:00.224Z,20.80
2017-07-11T06:56:28.566Z,24.57
2017-07-11T06:58:56.908Z,26.83
2017-07-11T07:01:26.340Z,30.40
2017-07-11T07:03:54.702Z,29.80
2017-07-11T07:06:23.105Z,26.40
2017-07-11T07:08:51.718Z,23.40
2017-07-11T07:11:20.062Z,30.60
2017-07-11T07:13:48.440Z,29.73
2017-07-11T07:16:17.351Z,35.30
2017-07-11T07:18:46.459Z,26.43
2017-07-11T07:21:14.790Z,38.27
2017-07-11T07:23:43.405Z,35.60
2017-07-11T07:26:11.758Z,35.60
2017-07-11T07:28:40.107Z,33.53
2017-07-11T07:31:08.774Z,30.07
2017-07-11T07:33:37.105Z,32.13
2017-07-11T07:36:05.479Z,28.87
2017-07-11T07:38:34.274Z,41.87
2017-07-11T07:41:02.610Z,33.60
2017-07-11T07:43:30.983Z,29.50
2017-07-11T07:45:59.859Z,33.97
2017-07-11T07:48:28.191Z,34.57
2017-07-11T07:50:56.546Z,42.83
2017-07-11T07:53:25.186Z,33.87
2017-07-11T07:55:54.310Z,33.43
2017-07-11T07:58:22.655Z,36.77
2017-07-11T08:00:51.553Z,33.30
2017-07-11T08:03:19.935Z,34.83
2017-07-11T08:05:48.294Z,41.80
2017-07-11T08:08:16.943Z,35.10
2017-07-11T08:10:45.273Z,37.00
2017-07-11T08:13:13.627Z,32.10
2017-07-11T08:15:42.258Z,35.87
2017-07-11T08:18:10.635Z,34.90
2017-07-11T08:20:38.964Z,35.13
2017-07-11T08:23:07.874Z,38.33
2017-07-11T08:25:36.230Z,34.33
2017-07-11T08:28:04.561Z,29.30
2017-07-11T08:30:33.347Z,31.10
2017-07-11T08:33:01.704Z,28.17
2017-07-11T08:35:30.100Z,36.63
2017-07-11T08:37:58.802Z,40.13
2017-07-11T08:40:27.141Z,32.40
2017-07-11T08:42:55.495Z,32.20
2017-07-11T08:45:24.185Z,30.20
2017-07-11T08:47:52.537Z,32.23
2017-07-11T08:50:20.905Z,27.93
2017-07-11T08:52:49.527Z,25.07
2017-07-11T08:55:17.890Z,25.33
2017-07-11T08:57:46.267Z,24.53
2017-07-11T09:00:14.921Z,23.53
2017-07-11T09:02:43.262Z,21.47
2017-07-11T09:05:11.710Z,19.60
2017-07-11T09:07:40.476Z,22.30
2017-07-11T09:10:08.844Z,19.90
2017-07-11T09:12:37.197Z,16.20
2017-07-11T09:15:06.018Z,16.47
2017-07-11T09:17:34.374Z,14.70
2017-07-11T09:20:02.743Z,19.17
2017-07-11T09:22:31.455Z,19.20
2017-07-11T09:24:59.793Z,13.83
2017-07-11T09:27:28.195Z,15.53
2017-07-11T09:29:57.086Z,13.53
2017-07-11T09:32:25.432Z,13.73
2017-07-11T09:34:53.789Z,11.97
2017-07-11T09:37:22.571Z,11.87
2017-07-11T09:39:50.921Z,10.80
2017-07-11T09:42:20.008Z,11.60
2017-07-11T09:44:48.831Z,12.80
2017-07-11T09:47:17.188Z,13.83
2017-07-11T09:49:46.305Z,10.10
2017-07-11T09:52:15.504Z,11.33
2017-07-11T09:54:43.875Z,12.50
2017-07-11T09:57:12.236Z,15.43
2017-07-11T09:59:41.015Z,14.20
2017-07-11T10:02:09.352Z,13.60
2017-07-11T10:04:37.716Z,12.13
2017-07-11T10:07:06.583Z,14.73
2017-07-11T10:09:34.923Z,16.93
2017-07-11T10:12:03.270Z,14.97
2017-07-11T10:14:32.257Z,12.93
2017-07-11T10:17:00.604Z,13.87
2017-07-11T10:19:29.715Z,15.33
2017-07-11T10:21:58.377Z,14.70
2017-07-11T10:24:26.720Z,15.83
2017-07-11T10:26:55.069Z,15.70
2017-07-11T10:29:23.712Z,16.37
2017-07-11T10:31:52.064Z,17.23
2017-07-11T10:34:20.409Z,15.57
2017-07-11T10:36:49.360Z,14.57
2017-07-11T10:39:17.708Z,12.90
2017-07-11T10:41:46.049Z,16.20
2017-07-11T10:44:14.683Z,15.67
2017-07-11T10:46:43.039Z,13.93
2017-07-11T10:49:11.407Z,13.50
2017-07-11T10:51:40.053Z,14.70
2017-07-11T10:54:08.402Z,13.93
2017-07-11T10:56:36.749Z,16.63
2017-07-11T10:59:05.942Z,15.70
2017-07-11T11:01:34.292Z,15.00
2017-07-11T11:04:02.645Z,14.03
2017-07-11T11:06:31.528Z,12.87
2017-07-11T11:08:59.872Z,14.93
2017-07-11T11:11:28.251Z,14.77
2017-07-11T11:13:56.897Z,14.27
2017-07-11T11:16:25.248Z,12.30
2017-07-11T11:18:53.602Z,12.53
2017-07-11T11:21:22.699Z,12.30
2017-07-11T11:23:51.029Z,11.20
2017-07-11T11:26:19.382Z,12.57
2017-07-11T11:28:48.038Z,13.73
2017-07-11T11:31:16.401Z,13.17
2017-07-11T11:33:44.738Z,13.40
2017-07-11T11:36:13.400Z,12.53
2017-07-11T11:38:41.808Z,14.80
2017-07-11T11:41:10.167Z,10.60
2017-07-11T11:43:39.043Z,11.27
2017-07-11T11:46:07.390Z,20.23
2017-07-11T11:48:35.754Z,14.03
2017-07-11T11:51:04.699Z,15.33
2017-07-11T11:53:33.066Z,15.17
2017-07-11T11:56:01.440Z,17.73
2017-07-11T11:58:30.092Z,15.37
2017-07-11T12:00:58.444Z,16.60
2017-07-11T12:03:26.778Z,18.37
2017-07-11T12:05:55.844Z,17.63
2017-07-11T12:08:24.979Z,12.43
2017-07-11T12:10:53.318Z,11.90
2017-07-11T12:13:21.992Z,11.57
2017-07-11T12:15:50.339Z,15.40
2017-07-11T12:18:18.686Z,15.43
2017-07-11T12:20:47.326Z,11.10
2017-07-11T12:23:15.661Z,16.03
2017-07-11T12:25:44.007Z,10.73
2017-07-11T12:28:13.273Z,8.03
2017-07-11T12:30:41.641Z,23.33
2017-07-11T12:33:09.998Z,14.10
2017-07-11T12:35:38.779Z,21.80
2017-07-11T12:38:07.139Z,10.33
2017-07-11T12:40:36.282Z,15.47
2017-07-11T12:43:05.238Z,14.60
2017-07-11T12:45:33.564Z,9.10
2017-07-11T12:48:01.910Z,9.93
2017-07-11T12:50:31.226Z,9.33
2017-07-11T12:52:59.563Z,9.60
2017-07-11T12:55:27.960Z,8.63
2017-07-11T12:57:56.558Z,13.13
2017-07-11T13:00:24.882Z,12.70
2017-07-11T13:02:53.243Z,14.77
2017-07-11T13:05:22.040Z,15.00
2017-07-11T13:07:50.381Z,11.67
2017-07-11T13:10:18.741Z,17.70
2017-07-11T13:12:47.727Z,14.03
2017-07-11T13:15:16.834Z,14.87
2017-07-11T13:17:45.175Z,12.27
2017-07-11T13:20:14.106Z,16.50
2017-07-11T13:22:42.470Z,12.23
2017-07-11T13:25:11.643Z,13.63
2017-07-11T13:27:40.310Z,22.70
2017-07-11T13:30:08.649Z,10.30
2017-07-11T13:32:37.014Z,22.63
2017-07-11T13:35:06.092Z,21.03
2017-07-11T13:37:35.191Z,20.80
2017-07-11T13:40:03.532Z,17.23
2017-07-11T13:42:32.301Z,15.07
2017-07-11T13:45:00.656Z,21.27
2017-07-11T13:47:29.817Z,13.00
2017-07-11T13:49:58.497Z,17.43
2017-07-11T13:52:26.856Z,25.97
2017-07-11T13:54:55.212Z,12.53
2017-07-11T13:57:24.195Z,27.50
2017-07-11T13:59:52.572Z,18.20
2017-07-11T14:02:21.728Z,13.03
2017-07-11T14:04:50.473Z,16.13
2017-07-11T14:07:18.812Z,16.10
2017-07-11T14:09:47.167Z,14.00
2017-07-11T14:12:15.824Z,20.97
2017-07-11T14:14:44.159Z,18.80
2017-07-11T14:17:12.493Z,15.20
2017-07-11T14:19:41.571Z,10.23
2017-07-11T14:22:09.907Z,12.57
2017-07-11T14:24:39.053Z,12.90
2017-07-11T14:27:07.818Z,14.80
2017-07-11T14:29:36.170Z,17.70
2017-07-11T14:32:05.302Z,24.50
2017-07-11T14:34:33.975Z,13.47
2017-07-11T14:37:03.093Z,14.50
2017-07-11T14:39:31.434Z,23.27
2017-07-11T14:42:00.352Z,14.03
2017-07-11T14:44:28.684Z,19.10
2017-07-11T14:46:57.026Z,11.20
2017-07-11T14:49:25.999Z,15.30
2017-07-11T14:51:54.343Z,14.67
2017-07-11T14:54:22.734Z,19.00
2017-07-11T14:56:51.406Z,12.67
2017-07-11T14:59:19.770Z,20.07
2017-07-11T15:01:48.119Z,14.40
2017-07-11T15:04:16.846Z,8.20
2017-07-11T15:06:45.215Z,6.03
2017-07-11T15:09:13.564Z,3.97
2017-07-11T15:11:42.228Z,3.47
2017-07-11T15:14:10.595Z,6.13
2017-07-11T15:16:38.935Z,3.00
2017-07-11T15:19:07.572Z,5.60
2017-07-11T15:21:35.914Z,3.80
2017-07-11T15:24:04.279Z,3.10
2017-07-11T15:26:33.215Z,2.90
2017-07-11T15:29:01.538Z,3.93
2017-07-11T15:31:29.882Z,2.90
2017-07-11T15:33:58.549Z,2.70
2017-07-11T15:36:27.673Z,3.40
2017-07-11T15:38:56.000Z,3.13
2017-07-11T15:41:24.656Z,3.13
2017-07-11T15:43:53.014Z,3.03
2017-07-11T15:46:21.363Z,5.17
2017-07-11T15:48:50.370Z,9.07
2017-07-11T15:51:18.707Z,2.90
2017-07-11T15:53:47.048Z,3.03
2017-07-11T15:56:16.269Z,3.40
2017-07-11T15:58:44.612Z,3.60
2017-07-11T16:01:13.715Z,3.00
2017-07-11T16:03:42.467Z,3.37
2017-07-11T16:06:10.785Z,8.00
2017-07-11T16:08:39.137Z,3.33
2017-07-11T16:11:08.678Z,3.57
2017-07-11T16:13:37.056Z,2.83
2017-07-11T16:16:05.404Z,2.87
2017-07-11T16:18:34.850Z,3.80
2017-07-11T16:21:03.203Z,3.63
2017-07-11T16:23:32.369Z,3.97
2017-07-11T16:26:01.089Z,3.37
2017-07-11T16:28:29.435Z,3.50
2017-07-11T16:30:57.776Z,3.50
2017-07-11T16:33:26.706Z,3.90
2017-07-11T16:35:55.066Z,4.77
2017-07-11T16:38:23.469Z,4.70
2017-07-11T16:40:52.418Z,4.73
2017-07-11T16:43:20.785Z,5.00
2017-07-11T16:45:49.185Z,5.17
2017-07-11T16:48:18.030Z,6.83
2017-07-11T16:50:46.392Z,4.17
2017-07-11T16:53:14.737Z,4.33
2017-07-11T16:55:43.937Z,3.73
2017-07-11T16:58:12.311Z,4.10
2017-07-11T17:00:40.642Z,4.00
2017-07-11T17:03:09.334Z,3.67
2017-07-11T17:05:38.042Z,4.60
2017-07-11T17:08:06.400Z,4.13
2017-07-11T17:10:35.829Z,4.70
2017-07-11T17:13:04.206Z,5.37
2017-07-11T17:15:32.600Z,5.33
2017-07-11T17:18:02.501Z,4.57
2017-07-11T17:20:30.857Z,4.30
2017-07-11T17:22:59.199Z,6.00
2017-07-11T17:25:28.158Z,5.77
2017-07-11T17:27:56.537Z,8.53
2017-07-11T17:30:24.908Z,5.93
2017-07-11T17:32:53.618Z,8.40
2017-07-11T17:35:21.976Z,5.50
2017-07-11T17:37:50.314Z,6.67
2017-07-11T17:40:19.226Z,6.13
2017-07-11T17:42:47.665Z,7.27
2017-07-11T17:45:16.019Z,4.80
2017-07-11T17:47:44.656Z,5.00
2017-07-11T17:50:13.046Z,4.73
2017-07-11T17:52:42.189Z,4.67
2017-07-11T17:55:10.952Z,4.90
2017-07-11T17:57:39.296Z,4.30
2017-07-11T18:00:08.409Z,4.67
2017-07-11T18:02:37.405Z,10.53
2017-07-11T18:05:05.776Z,5.37
2017-07-11T18:07:35.157Z,5.40
2017-07-11T18:10:03.894Z,7.87
2017-07-11T18:12:32.218Z,5.37
2017-07-11T18:15:00.586Z,10.13
2017-07-11T18:17:29.535Z,5.07
2017-07-11T18:19:57.896Z,5.30
2017-07-11T18:22:27.015Z,5.07
2017-07-11T18:24:56.003Z,6.70
2017-07-11T18:27:24.355Z,5.17
2017-07-11T18:29:53.496Z,9.53
2017-07-11T18:32:22.283Z,6.03
2017-07-11T18:34:50.619Z,8.13
2017-07-11T18:37:19.742Z,7.03
2017-07-11T18:39:48.709Z,9.13
2017-07-11T18:42:17.109Z,5.60
2017-07-11T18:44:45.486Z,6.10
2017-07-11T18:47:14.410Z,6.70
2017-07-11T18:49:42.763Z,6.43
2017-07-11T18:52:11.097Z,8.83
2017-07-11T18:54:39.834Z,14.57
2017-07-11T18:57:08.196Z,9.13
2017-07-11T18:59:36.555Z,6.93
2017-07-11T19:02:05.284Z,6.30
2017-07-11T19:04:33.600Z,6.97
2017-07-11T19:07:01.966Z,10.07
2017-07-11T19:09:30.834Z,6.80
2017-07-11T19:11:59.184Z,7.90
2017-07-11T19:14:27.519Z,10.53
2017-07-11T19:16:56.370Z,6.37
2017-07-11T19:19:24.726Z,6.30
2017-07-11T19:21:53.864Z,6.87
2017-07-11T19:24:22.545Z,6.80
2017-07-11T19:26:50.905Z,6.50
2017-07-11T19:29:19.259Z,6.47
2017-07-11T19:31:48.073Z,8.67
2017-07-11T19:34:16.449Z,5.80
2017-07-11T19:36:44.816Z,6.27
2017-07-11T19:39:13.737Z,8.30
2017-07-11T19:41:42.085Z,6.27
2017-07-11T19:44:11.205Z,7.27
2017-07-11T19:46:39.979Z,7.53
2017-07-11T19:49:08.310Z,6.13
2017-07-11T19:51:36.650Z,6.13
2017-07-11T19:54:05.723Z,6.20
2017-07-11T19:56:34.831Z,9.20
2017-07-11T19:59:03.949Z,7.20
2017-07-11T20:01:32.732Z,6.83
2017-07-11T20:04:01.101Z,6.07
2017-07-11T20:06:29.487Z,6.67
2017-07-11T20:08:58.153Z,6.23
2017-07-11T20:11:26.483Z,6.63
2017-07-11T20:13:54.851Z,11.90
2017-07-11T20:16:23.808Z,6.90
2017-07-11T20:18:52.131Z,5.00
2017-07-11T20:21:20.490Z,5.23
2017-07-11T20:23:49.273Z,9.80
2017-07-11T20:26:17.653Z,4.80
2017-07-11T20:28:46.003Z,6.30
2017-07-11T20:31:14.924Z,4.53
2017-07-11T20:33:43.310Z,4.43
2017-07-11T20:36:11.664Z,5.20
2017-07-11T20:38:40.523Z,6.27
2017-07-11T20:41:08.866Z,7.40
2017-07-11T20:43:37.232Z,4.53
2017-07-11T20:46:05.853Z,9.27
2017-07-11T20:48:34.227Z,6.60
2017-07-11T20:51:02.602Z,7.20
2017-07-11T20:53:31.458Z,5.30
2017-07-11T20:55:59.829Z,10.73
2017-07-11T20:58:28.179Z,10.73
2017-07-11T21:00:57.092Z,4.53
2017-07-11T21:03:25.461Z,5.87
2017-07-11T21:05:53.830Z,6.77
2017-07-11T21:08:22.499Z,4.43
2017-07-11T21:10:50.856Z,6.27
2017-07-11T21:13:19.255Z,7.37
2017-07-11T21:15:48.010Z,5.97
2017-07-11T21:18:16.360Z,12.03
2017-07-11T21:20:44.782Z,6.23
2017-07-11T21:23:13.669Z,6.00
2017-07-11T21:25:42.035Z,6.63
2017-07-11T21:28:10.403Z,5.23
2017-07-11T21:30:39.259Z,8.40
2017-07-11T21:33:07.612Z,5.80
2017-07-11T21:35:35.967Z,7.27
2017-07-11T21:38:04.651Z,7.07
2017-07-11T21:40:32.996Z,7.70
2017-07-11T21:43:01.365Z,7.27
2017-07-11T21:45:30.289Z,8.17
2017-07-11T21:47:58.655Z,8.07
2017-07-11T21:50:27.013Z,7.20
2017-07-11T21:52:55.676Z,7.90
2017-07-11T21:55:24.005Z,13.93
2017-07-11T21:57:53.102Z,10.63
2017-07-11T22:00:22.697Z,10.13
2017-07-11T22:02:51.029Z,7.00
2017-07-11T22:05:19.368Z,7.60
2017-07-11T22:07:48.603Z,6.33
2017-07-11T22:10:16.975Z,6.20
2017-07-11T22:12:45.436Z,7.43
2017-07-11T22:15:14.119Z,8.20
2017-07-11T22:17:42.479Z,6.83
2017-07-11T22:20:10.853Z,6.80
2017-07-11T22:22:39.597Z,6.90
2017-07-11T22:25:07.922Z,6.07
2017-07-11T22:27:36.267Z,8.70
2017-07-11T22:30:05.092Z,8.23
2017-07-11T22:32:33.426Z,7.33
2017-07-11T22:35:01.797Z,10.53
2017-07-11T22:37:30.563Z,6.40
2017-07-11T22:39:58.919Z,13.97
2017-07-11T22:42:27.284Z,7.63
2017-07-11T22:44:55.961Z,8.37
2017-07-11T22:47:24.331Z,7.10
2017-07-11T22:49:52.687Z,6.63
2017-07-11T22:52:21.544Z,6.50
2017-07-11T22:54:50.652Z,8.50
2017-07-11T22:57:19.028Z,7.17
2017-07-11T22:59:47.715Z,7.03
2017-07-11T23:02:16.058Z,11.10
2017-07-11T23:04:44.406Z,7.17
2017-07-11T23:07:13.026Z,13.33
2017-07-11T23:09:42.163Z,20.27
2017-07-11T23:12:10.518Z,8.90
2017-07-11T23:14:39.628Z,14.50
2017-07-11T23:17:08.001Z,9.10
2017-07-11T23:19:37.114Z,9.57
2017-07-11T23:22:05.977Z,10.83
2017-07-11T23:24:34.338Z,13.80
2017-07-11T23:27:02.681Z,12.97
2017-07-11T23:29:31.554Z,9.13
2017-07-11T23:31:59.908Z,9.97
2017-07-11T23:34:29.021Z,10.03
2017-07-11T23:36:58.422Z,18.10
2017-07-11T23:39:26.802Z,10.60
2017-07-11T23:41:55.180Z,10.77
2017-07-11T23:44:23.813Z,10.83
2017-07-11T23:46:52.170Z,12.27
2017-07-11T23:49:20.515Z,18.13
2017-07-11T23:51:49.235Z,11.10
2017-07-11T23:54:17.575Z,14.60
2017-07-11T23:56:45.899Z,12.33
2017-07-11T23:59:14.925Z,14.43
